Time;durP1;ratioP1;P1;durP2;ratioP2;P2;SDS_P1;SDS_P2;PMS_P1;PMS_P2;Temp;Humidity;BMP_temperature;BMP_pressure;BME280_temperature;BME280_humidity;BME280_pressure;Samples;Min_cycle;Max_cycle;Signal;HPM_P1;HPM_P2
2022/06/11 00:00:25;;;;;;;2.90;2.33;;;;;;;;;;5025995;28;20195;-76
2022/06/11 00:02:51;;;;;;;3.23;2.70;;;;;;;;;;5020243;28;20190;-76
2022/06/11 00:05:16;;;;;;;2.30;2.10;;;;;;;;;;5027612;28;20175;-76
2022/06/11 00:07:41;;;;;;;2.33;2.00;;;;;;;;;;5029158;28;20257;-76
2022/06/11 00:10:07;;;;;;;2.90;2.03;;;;;;;;;;5027122;28;20256;-76
2022/06/11 00:12:32;;;;;;;4.33;2.50;;;;;;;;;;5026886;28;20241;-76
2022/06/11 00:14:58;;;;;;;3.10;2.57;;;;;;;;;;5026023;28;20294;-76
2022/06/11 00:17:24;;;;;;;5.47;3.27;;;;;;;;;;5025023;28;20194;-76
2022/06/11 00:19:49;;;;;;;3.73;2.90;;;;;;;;;;5025463;28;20206;-76
2022/06/11 00:22:16;;;;;;;5.30;2.60;;;;;;;;;;5024902;28;20217;-76
2022/06/11 00:24:42;;;;;;;4.50;2.73;;;;;;;;;;5027153;28;20188;-76
2022/06/11 00:27:08;;;;;;;2.73;2.50;;;;;;;;;;5024212;28;20177;-76
2022/06/11 00:29:34;;;;;;;3.10;2.37;;;;;;;;;;5022297;28;20305;-76
2022/06/11 00:32:00;;;;;;;3.93;3.13;;;;;;;;;;5026028;28;20231;-76
2022/06/11 00:34:26;;;;;;;3.60;2.90;;;;;;;;;;5028543;28;20204;-76
2022/06/11 00:36:51;;;;;;;5.10;2.80;;;;;;;;;;5028748;28;20234;-76
2022/06/11 00:39:18;;;;;;;3.10;2.40;;;;;;;;;;5026959;28;20167;-76
2022/06/11 00:41:46;;;;;;;4.17;3.00;;;;;;;;;;5025029;28;20212;-76
2022/06/11 00:44:11;;;;;;;3.37;2.40;;;;;;;;;;5037316;28;20197;-76
2022/06/11 00:46:39;;;;;;;4.20;2.90;;;;;;;;;;5025301;28;20394;-76
2022/06/11 00:49:10;;;;;;;7.87;3.03;;;;;;;;;;5018758;28;20302;-76
2022/06/11 00:51:35;;;;;;;3.47;2.33;;;;;;;;;;5020444;28;20222;-76
2022/06/11 00:54:05;;;;;;;3.70;2.40;;;;;;;;;;5023569;28;20194;-76
2022/06/11 00:56:38;;;;;;;2.97;2.43;;;;;;;;;;5027574;28;20171;-76
2022/06/11 00:59:06;;;;;;;3.67;2.83;;;;;;;;;;5030082;28;20204;-76
2022/06/11 01:01:32;;;;;;;3.43;2.47;;;;;;;;;;5023448;28;20230;-76
2022/06/11 01:03:58;;;;;;;2.93;2.30;;;;;;;;;;5024464;28;20438;-76
2022/06/11 01:06:35;;;;;;;4.40;2.80;;;;;;;;;;5027344;28;20201;-76
2022/06/11 01:09:16;;;;;;;5.07;2.53;;;;;;;;;;5037148;28;20181;-76
2022/06/11 01:11:49;;;;;;;2.43;2.23;;;;;;;;;;5026716;28;20173;-76
2022/06/11 01:14:20;;;;;;;3.07;2.17;;;;;;;;;;5024057;28;20178;-76
2022/06/11 01:16:48;;;;;;;4.40;2.63;;;;;;;;;;5025605;28;20264;-76
2022/06/11 01:19:44;;;;;;;5.40;2.60;;;;;;;;;;5042810;28;20167;-76
2022/06/11 01:22:16;;;;;;;5.63;2.50;;;;;;;;;;5054587;28;20219;-76
2022/06/11 01:24:53;;;;;;;3.77;2.40;;;;;;;;;;5026391;28;20180;-76
2022/06/11 01:27:37;;;;;;;4.00;2.60;;;;;;;;;;5027547;28;20253;-76
2022/06/11 01:30:05;;;;;;;2.60;2.40;;;;;;;;;;5022212;28;20223;-76
2022/06/11 01:32:31;;;;;;;3.50;2.33;;;;;;;;;;5031847;28;20263;-76
2022/06/11 01:35:08;;;;;;;3.43;2.40;;;;;;;;;;5032441;28;20212;-76
2022/06/11 01:37:40;;;;;;;4.57;2.70;;;;;;;;;;5024550;28;20309;-76
2022/06/11 01:40:10;;;;;;;4.93;2.43;;;;;;;;;;5025551;28;20175;-76
2022/06/11 01:42:41;;;;;;;2.63;2.43;;;;;;;;;;5022282;28;20173;-76
2022/06/11 01:45:11;;;;;;;2.80;2.60;;;;;;;;;;5027129;28;20288;-76
2022/06/11 01:47:37;;;;;;;6.90;2.60;;;;;;;;;;5030614;28;20176;-76
2022/06/11 01:50:03;;;;;;;2.50;2.30;;;;;;;;;;5028715;28;20229;-76
2022/06/11 01:52:37;;;;;;;7.47;2.70;;;;;;;;;;5029169;28;20266;-76
2022/06/11 01:55:21;;;;;;;2.63;2.40;;;;;;;;;;5030807;28;20184;-76
2022/06/11 01:58:05;;;;;;;4.30;2.80;;;;;;;;;;5026209;28;20183;-76
2022/06/11 02:00:33;;;;;;;6.30;2.77;;;;;;;;;;5026225;28;20176;-76
2022/06/11 02:03:09;;;;;;;3.07;2.73;;;;;;;;;;5029989;28;20179;-76
2022/06/11 02:05:42;;;;;;;4.73;2.40;;;;;;;;;;5025064;28;20174;-76
2022/06/11 02:08:26;;;;;;;3.03;2.40;;;;;;;;;;5029819;28;20200;-76
2022/06/11 02:11:09;;;;;;;5.80;2.43;;;;;;;;;;5029490;28;20196;-76
2022/06/11 02:13:45;;;;;;;4.43;2.37;;;;;;;;;;5022809;28;20184;-76
2022/06/11 02:16:23;;;;;;;3.80;2.73;;;;;;;;;;5029912;28;20179;-76
2022/06/11 02:18:50;;;;;;;3.57;2.73;;;;;;;;;;5057222;28;20316;-76
2022/06/11 02:21:17;;;;;;;3.60;2.27;;;;;;;;;;5029510;28;20237;-76
2022/06/11 02:23:47;;;;;;;3.60;2.47;;;;;;;;;;5029974;28;20170;-76
2022/06/11 02:26:29;;;;;;;3.90;2.30;;;;;;;;;;5051098;28;20271;-76
2022/06/11 02:28:56;;;;;;;8.37;2.60;;;;;;;;;;5023595;28;20247;-76
2022/06/11 02:31:24;;;;;;;3.23;2.30;;;;;;;;;;5021553;28;20213;-76
2022/06/11 02:33:50;;;;;;;4.37;2.37;;;;;;;;;;5025914;28;20231;-76
2022/06/11 02:36:18;;;;;;;2.83;2.50;;;;;;;;;;5032082;28;20224;-76
2022/06/11 02:38:44;;;;;;;2.97;2.40;;;;;;;;;;5026728;28;20177;-76
2022/06/11 02:41:11;;;;;;;3.73;2.57;;;;;;;;;;5028336;28;20180;-76
2022/06/11 02:43:36;;;;;;;4.47;2.70;;;;;;;;;;5024366;28;20188;-76
2022/06/11 02:46:40;;;;;;;2.67;2.47;;;;;;;;;;5030808;28;20251;-76
2022/06/11 02:48:47;;;;;;;2.90;2.13;;;;;;;;;;5028749;28;20184;-76
2022/06/11 02:51:13;;;;;;;4.60;3.57;;;;;;;;;;5027833;28;20216;-76
2022/06/11 02:53:38;;;;;;;2.40;2.20;;;;;;;;;;5026227;28;20255;-76
2022/06/11 02:56:03;;;;;;;4.20;2.40;;;;;;;;;;5031182;28;20184;-76
2022/06/11 02:58:28;;;;;;;4.50;2.40;;;;;;;;;;5026404;28;20214;-76
2022/06/11 03:00:54;;;;;;;3.00;2.33;;;;;;;;;;5029833;28;20189;-76
2022/06/11 03:03:21;;;;;;;3.50;2.23;;;;;;;;;;5027979;28;20191;-76
2022/06/11 03:05:46;;;;;;;6.20;2.83;;;;;;;;;;5027011;28;20347;-76
2022/06/11 03:08:11;;;;;;;5.10;2.50;;;;;;;;;;5026980;28;20188;-76
2022/06/11 03:10:37;;;;;;;5.27;2.23;;;;;;;;;;5031494;28;20254;-76
2022/06/11 03:13:02;;;;;;;3.03;2.30;;;;;;;;;;5026974;28;20182;-76
2022/06/11 03:15:28;;;;;;;2.43;2.30;;;;;;;;;;5032064;28;20173;-76
2022/06/11 03:17:54;;;;;;;5.40;2.33;;;;;;;;;;5026147;28;20182;-76
2022/06/11 03:20:20;;;;;;;2.73;2.53;;;;;;;;;;5028759;28;20173;-76
2022/06/11 03:22:45;;;;;;;4.13;2.70;;;;;;;;;;5022741;28;20180;-76
2022/06/11 03:25:11;;;;;;;3.47;2.63;;;;;;;;;;5021213;28;20185;-76
2022/06/11 03:27:38;;;;;;;3.10;2.40;;;;;;;;;;5022103;28;20177;-76
2022/06/11 03:30:05;;;;;;;2.37;2.17;;;;;;;;;;5025637;28;20202;-76
2022/06/11 03:32:30;;;;;;;2.63;2.30;;;;;;;;;;5026082;28;20181;-76
2022/06/11 03:34:55;;;;;;;8.67;2.60;;;;;;;;;;5029389;28;20184;-76
2022/06/11 03:37:20;;;;;;;2.47;2.27;;;;;;;;;;5019788;28;20239;-76
2022/06/11 03:39:45;;;;;;;4.30;2.60;;;;;;;;;;5031118;28;20182;-76
2022/06/11 03:42:11;;;;;;;3.73;2.50;;;;;;;;;;5025089;28;20177;-76
2022/06/11 03:44:36;;;;;;;3.20;2.37;;;;;;;;;;5030698;28;20240;-76
2022/06/11 03:47:02;;;;;;;2.63;2.20;;;;;;;;;;5024906;28;20185;-76
2022/06/11 03:49:27;;;;;;;2.97;2.37;;;;;;;;;;5027158;28;20209;-76
2022/06/11 03:51:53;;;;;;;2.80;2.53;;;;;;;;;;5027038;28;20181;-76
2022/06/11 03:54:18;;;;;;;2.90;2.50;;;;;;;;;;5019021;28;20178;-76
2022/06/11 03:56:44;;;;;;;4.20;2.30;;;;;;;;;;5028107;28;20278;-76
2022/06/11 03:59:10;;;;;;;2.90;2.30;;;;;;;;;;5019865;28;20182;-76
2022/06/11 04:01:35;;;;;;;3.80;2.20;;;;;;;;;;5028859;28;20182;-76
2022/06/11 04:04:03;;;;;;;4.60;2.53;;;;;;;;;;5028876;28;20184;-76
2022/06/11 04:06:32;;;;;;;4.70;2.57;;;;;;;;;;5027125;28;20191;-76
2022/06/11 04:08:58;;;;;;;4.63;2.07;;;;;;;;;;5029637;28;20203;-76
2022/06/11 04:11:23;;;;;;;5.73;2.77;;;;;;;;;;5025536;28;20260;-76
2022/06/11 04:13:49;;;;;;;4.90;2.20;;;;;;;;;;5027635;28;20165;-76
2022/06/11 04:16:27;;;;;;;3.10;2.03;;;;;;;;;;5028781;28;20181;-76
2022/06/11 04:18:53;;;;;;;5.67;2.33;;;;;;;;;;5026838;28;20284;-76
2022/06/11 04:21:19;;;;;;;5.63;2.43;;;;;;;;;;5025491;28;20180;-76
2022/06/11 04:23:45;;;;;;;3.70;2.30;;;;;;;;;;5022548;28;20202;-76
2022/06/11 04:26:13;;;;;;;5.07;2.20;;;;;;;;;;5030273;28;20224;-76
2022/06/11 04:28:38;;;;;;;3.83;2.20;;;;;;;;;;5028971;28;20212;-76
2022/06/11 04:31:05;;;;;;;5.80;2.30;;;;;;;;;;5043283;28;20294;-76
2022/06/11 04:33:30;;;;;;;2.87;2.23;;;;;;;;;;5020866;28;20180;-76
2022/06/11 04:35:55;;;;;;;3.60;2.37;;;;;;;;;;5028685;28;20187;-76
2022/06/11 04:38:21;;;;;;;3.47;2.17;;;;;;;;;;5027216;28;20276;-76
2022/06/11 04:40:47;;;;;;;2.53;2.03;;;;;;;;;;5025822;28;20201;-76
2022/06/11 04:43:12;;;;;;;3.57;2.67;;;;;;;;;;5026894;28;20214;-76
2022/06/11 04:45:38;;;;;;;4.17;2.40;;;;;;;;;;5028261;28;20238;-76
2022/06/11 04:48:03;;;;;;;4.50;2.60;;;;;;;;;;5027310;28;20226;-76
2022/06/11 04:50:29;;;;;;;2.57;2.33;;;;;;;;;;5023215;28;20210;-76
2022/06/11 04:52:54;;;;;;;3.87;2.63;;;;;;;;;;5025103;28;20183;-76
2022/06/11 04:55:19;;;;;;;3.40;2.17;;;;;;;;;;5027831;28;20196;-76
2022/06/11 04:57:45;;;;;;;3.70;2.23;;;;;;;;;;5028805;28;20170;-76
2022/06/11 05:00:13;;;;;;;2.50;2.13;;;;;;;;;;5023880;28;20179;-76
2022/06/11 05:02:38;;;;;;;4.67;2.40;;;;;;;;;;5028697;28;20179;-76
2022/06/11 05:05:03;;;;;;;4.43;2.40;;;;;;;;;;5024587;28;20273;-77
2022/06/11 05:07:29;;;;;;;3.87;2.53;;;;;;;;;;5025450;28;20266;-76
2022/06/11 05:09:54;;;;;;;2.43;2.20;;;;;;;;;;5029421;28;20203;-76
2022/06/11 05:12:20;;;;;;;3.93;2.50;;;;;;;;;;5028938;28;20176;-76
2022/06/11 05:14:45;;;;;;;3.23;2.80;;;;;;;;;;5029957;28;20186;-76
2022/06/11 05:17:10;;;;;;;3.13;2.47;;;;;;;;;;5021866;28;20217;-76
2022/06/11 05:19:36;;;;;;;4.50;3.43;;;;;;;;;;5027739;28;20175;-76
2022/06/11 05:22:01;;;;;;;6.13;3.63;;;;;;;;;;5027885;28;20186;-76
2022/06/11 05:24:29;;;;;;;4.00;2.90;;;;;;;;;;5022678;28;20261;-76
2022/06/11 05:26:59;;;;;;;3.30;3.00;;;;;;;;;;5023590;28;20182;-76
2022/06/11 05:29:27;;;;;;;8.53;4.53;;;;;;;;;;5045071;28;20266;-76
2022/06/11 05:31:53;;;;;;;6.57;4.00;;;;;;;;;;5038013;28;20220;-76
2022/06/11 05:34:20;;;;;;;10.03;4.03;;;;;;;;;;5027873;28;20255;-76
2022/06/11 05:36:45;;;;;;;8.87;3.30;;;;;;;;;;5032948;28;20288;-76
2022/06/11 05:39:10;;;;;;;6.50;3.80;;;;;;;;;;5031116;28;20211;-75
2022/06/11 05:41:36;;;;;;;3.20;2.77;;;;;;;;;;5023844;28;20282;-76
2022/06/11 05:44:01;;;;;;;4.90;2.87;;;;;;;;;;5029452;28;20201;-76
2022/06/11 05:46:27;;;;;;;8.40;3.30;;;;;;;;;;5030646;28;20174;-76
2022/06/11 05:48:58;;;;;;;7.30;4.60;;;;;;;;;;5029962;28;20191;-76
2022/06/11 05:51:25;;;;;;;20.90;5.70;;;;;;;;;;5027852;28;20207;-76
2022/06/11 05:53:53;;;;;;;13.20;4.83;;;;;;;;;;5029254;28;20227;-76
2022/06/11 05:56:19;;;;;;;6.87;3.50;;;;;;;;;;5031461;28;20206;-76
2022/06/11 05:58:46;;;;;;;7.77;2.60;;;;;;;;;;5025851;28;20494;-76
2022/06/11 06:01:14;;;;;;;4.20;2.23;;;;;;;;;;5028777;28;20193;-76
2022/06/11 06:03:39;;;;;;;5.17;3.43;;;;;;;;;;5029372;28;20195;-76
2022/06/11 06:06:04;;;;;;;3.30;2.63;;;;;;;;;;5030381;28;20260;-76
2022/06/11 06:08:30;;;;;;;3.30;2.87;;;;;;;;;;5031144;28;20233;-76
2022/06/11 06:10:55;;;;;;;5.63;2.47;;;;;;;;;;5025137;28;20223;-76
2022/06/11 06:16:04;;;;;;;3.50;2.90;;;;;;;;;;5028708;28;20193;-76
2022/06/11 06:18:30;;;;;;;3.33;2.23;;;;;;;;;;5020413;28;20185;-76
2022/06/11 06:20:55;;;;;;;4.17;2.50;;;;;;;;;;5045423;28;20218;-76
2022/06/11 06:23:20;;;;;;;4.23;2.20;;;;;;;;;;5027150;28;20181;-76
2022/06/11 06:25:46;;;;;;;4.07;2.43;;;;;;;;;;5026184;28;20189;-76
2022/06/11 06:28:11;;;;;;;3.20;2.33;;;;;;;;;;5024847;28;20178;-76
2022/06/11 06:30:36;;;;;;;4.97;2.50;;;;;;;;;;5028323;28;20211;-76
2022/06/11 06:33:02;;;;;;;5.30;3.50;;;;;;;;;;5027466;28;20173;-76
2022/06/11 06:35:27;;;;;;;2.63;2.03;;;;;;;;;;5029797;28;20254;-76
2022/06/11 06:37:52;;;;;;;5.07;3.20;;;;;;;;;;5031214;28;20295;-76
2022/06/11 06:40:18;;;;;;;2.43;2.10;;;;;;;;;;5028874;28;20209;-76
2022/06/11 06:42:43;;;;;;;4.10;2.13;;;;;;;;;;5031061;28;20174;-76
2022/06/11 06:45:08;;;;;;;3.80;2.20;;;;;;;;;;5029302;28;20279;-76
2022/06/11 06:47:34;;;;;;;3.30;2.27;;;;;;;;;;5029845;28;20242;-76
2022/06/11 06:49:59;;;;;;;3.73;1.90;;;;;;;;;;5020596;28;20245;-76
2022/06/11 06:52:24;;;;;;;2.37;2.17;;;;;;;;;;5024762;28;20188;-76
2022/06/11 06:54:49;;;;;;;3.70;2.40;;;;;;;;;;5024042;28;20183;-76
2022/06/11 06:57:16;;;;;;;2.73;2.40;;;;;;;;;;5030928;28;20405;-76
2022/06/11 06:59:41;;;;;;;3.53;2.30;;;;;;;;;;5029601;28;20239;-76
2022/06/11 07:02:08;;;;;;;5.50;3.90;;;;;;;;;;5025770;28;20259;-76
2022/06/11 07:04:33;;;;;;;3.53;2.73;;;;;;;;;;5028000;28;20193;-76
2022/06/11 07:06:58;;;;;;;5.07;2.30;;;;;;;;;;5029203;28;20177;-76
2022/06/11 07:09:23;;;;;;;5.33;2.43;;;;;;;;;;5027043;28;20183;-76
2022/06/11 07:11:49;;;;;;;3.40;2.30;;;;;;;;;;5027529;28;20203;-76
2022/06/11 07:14:14;;;;;;;7.63;2.60;;;;;;;;;;5027434;28;20191;-76
2022/06/11 07:16:43;;;;;;;3.97;2.37;;;;;;;;;;5027969;28;20236;-76
2022/06/11 07:19:30;;;;;;;3.00;2.50;;;;;;;;;;5026132;28;20171;-76
2022/06/11 07:21:57;;;;;;;5.23;3.63;;;;;;;;;;5029626;28;20232;-76
2022/06/11 07:24:23;;;;;;;2.53;2.03;;;;;;;;;;5027244;28;20201;-76
2022/06/11 07:26:52;;;;;;;3.03;2.53;;;;;;;;;;5044115;28;20208;-76
2022/06/11 07:29:19;;;;;;;5.93;2.90;;;;;;;;;;5026846;28;20201;-76
2022/06/11 07:31:47;;;;;;;2.43;2.20;;;;;;;;;;5031210;28;20202;-76
2022/06/11 07:34:13;;;;;;;5.87;2.50;;;;;;;;;;5030730;28;20263;-76
2022/06/11 07:36:38;;;;;;;3.37;2.03;;;;;;;;;;5030634;28;20251;-76
2022/06/11 07:39:03;;;;;;;3.90;2.40;;;;;;;;;;5028772;28;20242;-76
2022/06/11 07:41:29;;;;;;;5.37;2.90;;;;;;;;;;5023988;28;20194;-76
2022/06/11 07:43:55;;;;;;;4.20;2.23;;;;;;;;;;5026680;28;20179;-76
2022/06/11 07:46:20;;;;;;;4.50;2.60;;;;;;;;;;5028008;28;20207;-76
2022/06/11 07:48:45;;;;;;;3.73;2.40;;;;;;;;;;5027120;28;20184;-76
2022/06/11 07:51:11;;;;;;;3.97;2.23;;;;;;;;;;5026171;28;20209;-76
2022/06/11 07:53:40;;;;;;;3.13;2.30;;;;;;;;;;5024335;28;20185;-76
2022/06/11 07:56:05;;;;;;;5.20;2.83;;;;;;;;;;5030336;28;20180;-76
2022/06/11 07:58:31;;;;;;;4.87;2.50;;;;;;;;;;5024895;28;20171;-76
2022/06/11 08:00:57;;;;;;;3.27;2.43;;;;;;;;;;5030863;28;20184;-76
2022/06/11 08:03:22;;;;;;;2.67;2.30;;;;;;;;;;5024061;28;20235;-76
2022/06/11 08:05:48;;;;;;;2.87;2.20;;;;;;;;;;5026023;28;20221;-76
2022/06/11 08:08:14;;;;;;;4.47;2.10;;;;;;;;;;5028512;28;20250;-76
2022/06/11 08:10:40;;;;;;;5.73;2.80;;;;;;;;;;5027912;28;20194;-76
2022/06/11 08:13:05;;;;;;;4.23;2.60;;;;;;;;;;5025990;28;20175;-76
2022/06/11 08:15:31;;;;;;;3.57;2.20;;;;;;;;;;5023619;28;20175;-76
2022/06/11 08:17:56;;;;;;;9.93;2.87;;;;;;;;;;5022218;28;20226;-76
2022/06/11 08:20:24;;;;;;;2.73;2.33;;;;;;;;;;5029537;28;20174;-76
2022/06/11 08:22:50;;;;;;;3.80;2.30;;;;;;;;;;5026043;28;20265;-76
2022/06/11 08:25:16;;;;;;;2.97;2.50;;;;;;;;;;5030304;28;20266;-75
2022/06/11 08:27:41;;;;;;;2.37;2.17;;;;;;;;;;5016591;28;20186;-76
2022/06/11 08:30:07;;;;;;;2.87;2.27;;;;;;;;;;5020223;28;20265;-76
2022/06/11 08:32:32;;;;;;;5.60;2.80;;;;;;;;;;5022119;28;20178;-76
2022/06/11 08:34:57;;;;;;;3.70;2.60;;;;;;;;;;5026982;28;20175;-76
2022/06/11 08:37:23;;;;;;;4.90;2.17;;;;;;;;;;5029148;28;20219;-76
2022/06/11 08:39:48;;;;;;;3.03;2.57;;;;;;;;;;5029992;28;20174;-76
2022/06/11 08:42:43;;;;;;;6.90;2.30;;;;;;;;;;5029991;28;20210;-76
2022/06/11 08:45:18;;;;;;;5.67;3.43;;;;;;;;;;5008312;28;20187;-76
2022/06/11 08:47:51;;;;;;;6.10;2.63;;;;;;;;;;5026473;28;20187;-76
2022/06/11 08:50:19;;;;;;;2.57;2.37;;;;;;;;;;5027895;28;20570;-76
2022/06/11 08:52:45;;;;;;;3.30;2.60;;;;;;;;;;5030387;28;20546;-76
2022/06/11 08:55:10;;;;;;;3.70;2.40;;;;;;;;;;5029511;28;20184;-76
2022/06/11 08:57:54;;;;;;;3.57;2.27;;;;;;;;;;5030067;28;20176;-76
2022/06/11 09:00:34;;;;;;;2.67;2.10;;;;;;;;;;5028262;28;20208;-75
2022/06/11 09:03:23;;;;;;;4.33;1.93;;;;;;;;;;5024625;28;20203;-76
2022/06/11 09:05:48;;;;;;;4.17;2.30;;;;;;;;;;5017989;28;20189;-76
2022/06/11 09:08:25;;;;;;;6.70;3.00;;;;;;;;;;5028877;28;20212;-76
2022/06/11 09:11:09;;;;;;;2.97;2.23;;;;;;;;;;5030467;28;20189;-75
2022/06/11 09:13:52;;;;;;;2.87;2.40;;;;;;;;;;5027791;28;20177;-76
2022/06/11 09:16:32;;;;;;;4.37;2.20;;;;;;;;;;5030825;28;20200;-76
2022/06/11 09:19:01;;;;;;;3.90;2.10;;;;;;;;;;5041245;28;20218;-76
2022/06/11 09:21:47;;;;;;;3.80;2.60;;;;;;;;;;5038531;28;20187;-76
2022/06/11 09:24:28;;;;;;;2.47;1.93;;;;;;;;;;5026963;28;20185;-76
2022/06/11 09:27:01;;;;;;;2.67;2.10;;;;;;;;;;5023558;28;20175;-76
2022/06/11 09:29:30;;;;;;;4.07;2.33;;;;;;;;;;5054812;28;20232;-76
2022/06/11 09:32:12;;;;;;;2.30;2.00;;;;;;;;;;5030492;28;20194;-75
2022/06/11 09:34:43;;;;;;;5.53;2.22;;;;;;;;;;5029907;28;20175;-76
2022/06/11 09:37:15;;;;;;;3.47;2.25;;;;;;;;;;5029953;28;20235;-76
2022/06/11 09:39:57;;;;;;;3.73;2.80;;;;;;;;;;5024258;28;20237;-75
2022/06/11 09:42:42;;;;;;;5.27;2.30;;;;;;;;;;5027888;28;20171;-75
2022/06/11 09:45:10;;;;;;;3.27;2.67;;;;;;;;;;5029281;28;20210;-75
2022/06/11 09:47:47;;;;;;;3.97;2.53;;;;;;;;;;5026691;28;20197;-76
2022/06/11 09:50:17;;;;;;;14.17;3.30;;;;;;;;;;5029200;28;20218;-76
2022/06/11 09:52:42;;;;;;;6.30;2.70;;;;;;;;;;5030695;28;20174;-75
2022/06/11 09:55:21;;;;;;;4.30;2.50;;;;;;;;;;5026703;28;20194;-76
2022/06/11 09:58:01;;;;;;;2.80;2.07;;;;;;;;;;5027012;28;20186;-76
2022/06/11 10:00:26;;;;;;;4.47;2.40;;;;;;;;;;5032582;28;20213;-75
2022/06/11 10:03:10;;;;;;;3.63;2.28;;;;;;;;;;5027728;28;20214;-75
2022/06/11 10:05:55;;;;;;;5.32;2.65;;;;;;;;;;5022878;28;20181;-75
2022/06/11 10:08:20;;;;;;;4.25;2.50;;;;;;;;;;5029908;28;20273;-76
2022/06/11 10:10:46;;;;;;;2.95;2.65;;;;;;;;;;5027252;28;20287;-75
2022/06/11 10:13:20;;;;;;;4.35;2.38;;;;;;;;;;5025345;28;20174;-75
2022/06/11 10:15:47;;;;;;;3.45;2.35;;;;;;;;;;5032072;28;20311;-76
2022/06/11 10:18:31;;;;;;;2.30;2.10;;;;;;;;;;5025879;28;20174;-76
2022/06/11 10:20:58;;;;;;;6.15;2.20;;;;;;;;;;5056639;28;20230;-75
2022/06/11 10:23:36;;;;;;;3.25;2.35;;;;;;;;;;5032834;28;20171;-75
2022/06/11 10:26:01;;;;;;;3.63;2.55;;;;;;;;;;5027619;28;20183;-75
2022/06/11 10:28:32;;;;;;;2.58;2.30;;;;;;;;;;5035120;28;20210;-75
2022/06/11 10:30:59;;;;;;;4.03;2.20;;;;;;;;;;5021886;28;20201;-76
2022/06/11 10:33:29;;;;;;;2.75;2.15;;;;;;;;;;5032063;28;20175;-76
2022/06/11 10:36:03;;;;;;;2.72;2.08;;;;;;;;;;5030817;28;20175;-75
2022/06/11 10:38:37;;;;;;;4.18;3.13;;;;;;;;;;5029315;28;20175;-75
2022/06/11 10:41:05;;;;;;;2.38;2.15;;;;;;;;;;5053844;28;20184;-75
2022/06/11 10:43:44;;;;;;;4.93;2.63;;;;;;;;;;5055369;28;20187;-75
2022/06/11 10:46:10;;;;;;;4.10;2.28;;;;;;;;;;5028928;28;20186;-75
2022/06/11 10:48:37;;;;;;;3.65;2.58;;;;;;;;;;5026907;28;20171;-75
2022/06/11 10:51:06;;;;;;;3.13;2.40;;;;;;;;;;5027985;28;20214;-75
2022/06/11 10:53:58;;;;;;;2.70;2.22;;;;;;;;;;5039132;28;20279;-75
2022/06/11 10:56:47;;;;;;;3.55;2.65;;;;;;;;;;5026466;28;20179;-75
2022/06/11 10:59:18;;;;;;;4.30;2.60;;;;;;;;;;5026792;28;20194;-75
2022/06/11 11:01:45;;;;;;;2.65;2.30;;;;;;;;;;5026147;28;20268;-75
2022/06/11 11:04:14;;;;;;;3.72;2.08;;;;;;;;;;5019886;28;20183;-75
2022/06/11 11:06:41;;;;;;;2.40;2.20;;;;;;;;;;5028885;28;20186;-75
2022/06/11 11:09:10;;;;;;;3.80;2.65;;;;;;;;;;5031154;28;20339;-76
2022/06/11 11:11:40;;;;;;;4.95;2.58;;;;;;;;;;5032348;28;20268;-75
2022/06/11 11:14:16;;;;;;;2.80;2.20;;;;;;;;;;5029130;28;20203;-76
2022/06/11 11:16:46;;;;;;;3.28;2.25;;;;;;;;;;5027659;28;20182;-75
2022/06/11 11:19:15;;;;;;;3.00;2.42;;;;;;;;;;5024550;28;20181;-75
2022/06/11 11:21:48;;;;;;;3.83;2.47;;;;;;;;;;5025481;28;20234;-75
2022/06/11 11:24:16;;;;;;;3.85;2.42;;;;;;;;;;5044378;28;20179;-75
2022/06/11 11:26:56;;;;;;;3.45;2.47;;;;;;;;;;5029987;28;20313;-75
2022/06/11 11:29:27;;;;;;;2.65;2.45;;;;;;;;;;5027323;28;20179;-75
2022/06/11 11:31:55;;;;;;;4.57;2.30;;;;;;;;;;5028938;28;20198;-75
2022/06/11 11:34:20;;;;;;;2.42;2.22;;;;;;;;;;5028291;28;20269;-75
2022/06/11 11:36:45;;;;;;;5.57;2.60;;;;;;;;;;5028489;28;20309;-75
2022/06/11 11:39:11;;;;;;;2.25;2.05;;;;;;;;;;5018937;28;20184;-75
2022/06/11 11:41:37;;;;;;;2.47;2.28;;;;;;;;;;5027421;28;20183;-75
2022/06/11 11:44:02;;;;;;;3.60;2.40;;;;;;;;;;5030083;28;20189;-75
2022/06/11 11:46:32;;;;;;;3.20;2.53;;;;;;;;;;5028997;28;20171;-75
2022/06/11 11:48:58;;;;;;;3.88;2.10;;;;;;;;;;5029812;28;20182;-75
2022/06/11 11:51:23;;;;;;;4.72;2.25;;;;;;;;;;5024843;28;20281;-75
2022/06/11 11:53:51;;;;;;;4.57;2.60;;;;;;;;;;5027303;28;20179;-75
2022/06/11 11:56:26;;;;;;;4.38;2.40;;;;;;;;;;5026574;28;20183;-75
2022/06/11 11:58:54;;;;;;;2.60;2.40;;;;;;;;;;5024299;28;20284;-75
2022/06/11 12:01:21;;;;;;;2.50;2.30;;;;;;;;;;5024152;28;20178;-75
2022/06/11 12:03:51;;;;;;;2.45;2.25;;;;;;;;;;5028430;28;20175;-75
2022/06/11 12:06:25;;;;;;;3.20;2.30;;;;;;;;;;5028661;28;20167;-75
2022/06/11 12:08:54;;;;;;;4.13;2.60;;;;;;;;;;5038577;28;20265;-75
2022/06/11 12:11:28;;;;;;;3.10;2.42;;;;;;;;;;5025679;28;20214;-75
2022/06/11 12:13:57;;;;;;;3.70;2.53;;;;;;;;;;5023614;28;20170;-75
2022/06/11 12:16:28;;;;;;;2.75;2.55;;;;;;;;;;5023807;28;20201;-75
2022/06/11 12:18:55;;;;;;;4.85;2.65;;;;;;;;;;5025412;28;20201;-75
2022/06/11 12:21:25;;;;;;;3.00;2.47;;;;;;;;;;5028316;28;20202;-75
2022/06/11 12:23:59;;;;;;;2.88;2.40;;;;;;;;;;5022621;28;20202;-75
2022/06/11 12:26:30;;;;;;;4.97;2.78;;;;;;;;;;5027557;28;20272;-75
2022/06/11 12:29:00;;;;;;;3.20;2.33;;;;;;;;;;5024021;28;20213;-75
2022/06/11 12:31:29;;;;;;;4.45;2.35;;;;;;;;;;5029272;28;20217;-75
2022/06/11 12:33:55;;;;;;;2.85;2.60;;;;;;;;;;5044156;28;20273;-75
2022/06/11 12:36:39;;;;;;;5.95;2.33;;;;;;;;;;5024091;28;20298;-75
2022/06/11 12:39:08;;;;;;;4.00;2.42;;;;;;;;;;5023401;28;20238;-75
2022/06/11 12:41:33;;;;;;;5.40;2.72;;;;;;;;;;5024928;28;20214;-75
2022/06/11 12:43:58;;;;;;;3.80;2.20;;;;;;;;;;5028260;28;20174;-74
2022/06/11 12:46:32;;;;;;;3.35;2.40;;;;;;;;;;5039248;28;20420;-75
2022/06/11 12:48:57;;;;;;;2.97;2.35;;;;;;;;;;5029773;28;20273;-75
2022/06/11 12:51:41;;;;;;;3.00;2.22;;;;;;;;;;5045117;28;20297;-75
2022/06/11 12:54:18;;;;;;;2.55;2.35;;;;;;;;;;5018497;28;20202;-75
2022/06/11 12:56:44;;;;;;;5.68;2.50;;;;;;;;;;5028109;28;20266;-75
2022/06/11 12:59:18;;;;;;;2.40;2.10;;;;;;;;;;5044249;28;20263;-75
2022/06/11 13:01:48;;;;;;;2.30;2.10;;;;;;;;;;5025757;28;20928;-75
2022/06/11 13:04:20;;;;;;;5.28;2.40;;;;;;;;;;5022691;28;20190;-74
2022/06/11 13:06:48;;;;;;;3.47;2.25;;;;;;;;;;5027170;28;20187;-75
2022/06/11 13:09:35;;;;;;;4.55;2.50;;;;;;;;;;5020455;28;20184;-75
2022/06/11 13:12:00;;;;;;;5.72;2.90;;;;;;;;;;5023338;28;20198;-75
2022/06/11 13:14:34;;;;;;;2.67;2.30;;;;;;;;;;5027182;28;20179;-74
2022/06/11 13:17:19;;;;;;;2.47;2.28;;;;;;;;;;5021863;28;20174;-75
2022/06/11 13:19:49;;;;;;;5.97;2.30;;;;;;;;;;5024017;28;20233;-74
2022/06/11 13:22:14;;;;;;;2.50;2.30;;;;;;;;;;5019280;28;20206;-74
2022/06/11 13:24:46;;;;;;;4.85;3.03;;;;;;;;;;5039833;28;20262;-75
2022/06/11 13:27:21;;;;;;;3.33;2.60;;;;;;;;;;5034811;28;20479;-75
2022/06/11 13:29:46;;;;;;;4.80;2.95;;;;;;;;;;5030126;28;20170;-75
2022/06/11 13:32:11;;;;;;;3.72;2.28;;;;;;;;;;5031629;28;20248;-75
2022/06/11 13:34:37;;;;;;;4.72;2.42;;;;;;;;;;5031195;28;20201;-74
2022/06/11 13:37:02;;;;;;;3.92;2.83;;;;;;;;;;5027199;28;20293;-75
2022/06/11 13:39:30;;;;;;;3.55;2.65;;;;;;;;;;5044727;28;20221;-75
2022/06/11 13:42:34;;;;;;;3.20;2.55;;;;;;;;;;5027885;28;20242;-75
2022/06/11 13:44:59;;;;;;;2.63;2.38;;;;;;;;;;4982061;28;20254;-75
2022/06/11 13:47:30;;;;;;;2.67;2.47;;;;;;;;;;4988775;28;20184;-75
2022/06/11 13:50:01;;;;;;;2.97;2.20;;;;;;;;;;4973450;28;20208;-75
2022/06/11 13:55:21;;;;;;;4.68;2.35;;;;;;;;;;4986255;28;20305;-75
2022/06/11 13:57:46;;;;;;;4.30;2.70;;;;;;;;;;4988632;28;20729;-74
2022/06/11 14:00:30;;;;;;;2.78;2.20;;;;;;;;;;4971158;28;20238;-75
2022/06/11 14:03:14;;;;;;;2.45;2.25;;;;;;;;;;4970267;28;20188;-75
2022/06/11 14:05:41;;;;;;;4.97;2.25;;;;;;;;;;4977023;28;20179;-75
2022/06/11 14:08:07;;;;;;;3.60;2.95;;;;;;;;;;4975089;28;20189;-75
2022/06/11 14:10:35;;;;;;;3.53;2.40;;;;;;;;;;4973704;28;20207;-75
2022/06/11 14:13:11;;;;;;;2.20;2.10;;;;;;;;;;4991236;28;20184;-75
2022/06/11 14:15:46;;;;;;;2.45;2.25;;;;;;;;;;5008186;28;20186;-75
2022/06/11 14:18:21;;;;;;;2.60;2.40;;;;;;;;;;5038401;28;20175;-75
2022/06/11 14:20:48;;;;;;;3.90;2.35;;;;;;;;;;5029808;28;20183;-75
2022/06/11 14:23:14;;;;;;;3.83;2.53;;;;;;;;;;5032059;28;20262;-74
2022/06/11 14:25:42;;;;;;;3.00;2.40;;;;;;;;;;5030468;28;20243;-75
2022/06/11 14:28:13;;;;;;;2.47;2.28;;;;;;;;;;5043626;28;20427;-74
2022/06/11 14:30:39;;;;;;;4.13;2.30;;;;;;;;;;5030390;28;20325;-75
2022/06/11 14:33:22;;;;;;;2.53;2.33;;;;;;;;;;5030142;28;20198;-75
2022/06/11 14:35:50;;;;;;;3.25;2.40;;;;;;;;;;5031751;28;20174;-75
2022/06/11 14:38:22;;;;;;;4.13;2.38;;;;;;;;;;5043734;28;20230;-75
2022/06/11 14:41:17;;;;;;;2.60;2.38;;;;;;;;;;5045500;28;20236;-75
2022/06/11 14:43:57;;;;;;;4.07;2.60;;;;;;;;;;5030338;28;20175;-75
2022/06/11 14:46:28;;;;;;;2.47;2.30;;;;;;;;;;5029308;28;20178;-75
2022/06/11 14:48:54;;;;;;;3.63;2.40;;;;;;;;;;5028754;28;20210;-74
2022/06/11 14:51:20;;;;;;;3.85;2.33;;;;;;;;;;5032171;28;20209;-75
2022/06/11 14:53:46;;;;;;;11.60;3.50;;;;;;;;;;5026576;28;20172;-75
2022/06/11 14:56:11;;;;;;;2.90;2.22;;;;;;;;;;5042542;28;20265;-74
2022/06/11 14:58:45;;;;;;;3.60;2.28;;;;;;;;;;5030061;28;20212;-74
2022/06/11 15:01:29;;;;;;;3.47;2.60;;;;;;;;;;5027472;28;20198;-75